sensor_id;sensor_type;location;lat;lon;timestamp;temperature;humidity
2889;DHT22;1453;42.708;23.282;2022-12-29T00:02:09;5.80;99.90
2889;DHT22;1453;42.708;23.282;2022-12-29T00:04:35;5.90;99.90
2889;DHT22;1453;42.708;23.282;2022-12-29T00:07:01;6.00;99.90
2889;DHT22;1453;42.708;23.282;2022-12-29T00:09:30;5.90;99.90
2889;DHT22;1453;42.708;23.282;2022-12-29T00:11:56;5.90;99.90
2889;DHT22;1453;42.708;23.282;2022-12-29T00:14:22;6.10;99.90
2889;DHT22;1453;42.708;23.282;2022-12-29T00:17:07;6.10;99.90
2889;DHT22;1453;42.708;23.282;2022-12-29T00:19:33;5.90;99.90
2889;DHT22;1453;42.708;23.282;2022-12-29T00:22:18;5.80;99.90
2889;DHT22;1453;42.708;23.282;2022-12-29T00:25:03;6.00;99.90
2889;DHT22;1453;42.708;23.282;2022-12-29T00:27:50;6.10;99.90
2889;DHT22;1453;42.708;23.282;2022-12-29T00:30:35;6.30;99.90
2889;DHT22;1453;42.708;23.282;2022-12-29T00:33:28;6.40;99.90
2889;DHT22;1453;42.708;23.282;2022-12-29T00:36:19;6.40;99.90
2889;DHT22;1453;42.708;23.282;2022-12-29T00:39:04;6.40;99.90
2889;DHT22;1453;42.708;23.282;2022-12-29T00:41:51;6.40;99.90
2889;DHT22;1453;42.708;23.282;2022-12-29T00:44:36;6.20;99.90
2889;DHT22;1453;42.708;23.282;2022-12-29T00:47:01;6.00;99.90
2889;DHT22;1453;42.708;23.282;2022-12-29T00:49:32;5.90;99.90
2889;DHT22;1453;42.708;23.282;2022-12-29T00:54:31;5.90;99.90
2889;DHT22;1453;42.708;23.282;2022-12-29T00:56:58;5.90;99.90
2889;DHT22;1453;42.708;23.282;2022-12-29T00:59:24;5.90;99.90
2889;DHT22;1453;42.708;23.282;2022-12-29T01:01:52;6.00;99.90
2889;DHT22;1453;42.708;23.282;2022-12-29T01:04:19;6.00;99.90
2889;DHT22;1453;42.708;23.282;2022-12-29T01:06:46;6.00;99.90
2889;DHT22;1453;42.708;23.282;2022-12-29T01:09:12;6.00;99.90
2889;DHT22;1453;42.708;23.282;2022-12-29T01:11:57;5.90;99.90
2889;DHT22;1453;42.708;23.282;2022-12-29T01:14:23;6.00;99.90
2889;DHT22;1453;42.708;23.282;2022-12-29T01:16:49;6.10;99.90
2889;DHT22;1453;42.708;23.282;2022-12-29T01:19:16;6.10;99.90
2889;DHT22;1453;42.708;23.282;2022-12-29T01:21:43;6.00;99.90
2889;DHT22;1453;42.708;23.282;2022-12-29T01:24:09;6.00;99.90
2889;DHT22;1453;42.708;23.282;2022-12-29T01:26:35;5.90;99.90
2889;DHT22;1453;42.708;23.282;2022-12-29T01:29:01;5.90;99.90
2889;DHT22;1453;42.708;23.282;2022-12-29T01:31:27;5.80;99.90
2889;DHT22;1453;42.708;23.282;2022-12-29T01:33:52;5.70;99.90
2889;DHT22;1453;42.708;23.282;2022-12-29T01:36:19;5.60;99.90
2889;DHT22;1453;42.708;23.282;2022-12-29T01:38:45;5.60;99.90
2889;DHT22;1453;42.708;23.282;2022-12-29T01:41:13;5.70;99.90
2889;DHT22;1453;42.708;23.282;2022-12-29T01:43:52;5.80;99.90
2889;DHT22;1453;42.708;23.282;2022-12-29T01:46:41;5.80;99.90
2889;DHT22;1453;42.708;23.282;2022-12-29T01:51:55;5.80;99.90
2889;DHT22;1453;42.708;23.282;2022-12-29T01:54:32;5.80;99.90
2889;DHT22;1453;42.708;23.282;2022-12-29T01:57:29;5.80;99.90
2889;DHT22;1453;42.708;23.282;2022-12-29T01:59:58;5.70;99.90
2889;DHT22;1453;42.708;23.282;2022-12-29T02:02:34;5.80;99.90
2889;DHT22;1453;42.708;23.282;2022-12-29T02:05:07;5.80;99.90
2889;DHT22;1453;42.708;23.282;2022-12-29T02:07:37;5.80;99.90
2889;DHT22;1453;42.708;23.282;2022-12-29T02:10:03;5.80;99.90
2889;DHT22;1453;42.708;23.282;2022-12-29T02:12:29;5.70;99.90
2889;DHT22;1453;42.708;23.282;2022-12-29T02:14:58;5.80;99.90
2889;DHT22;1453;42.708;23.282;2022-12-29T02:44:52;5.50;99.90
2889;DHT22;1453;42.708;23.282;2022-12-29T02:50:37;5.90;99.90
2889;DHT22;1453;42.708;23.282;2022-12-29T02:53:15;6.00;99.90
2889;DHT22;1453;42.708;23.282;2022-12-29T02:55:51;5.90;99.90
2889;DHT22;1453;42.708;23.282;2022-12-29T02:58:22;5.90;99.90
2889;DHT22;1453;42.708;23.282;2022-12-29T03:03:51;6.10;99.90
2889;DHT22;1453;42.708;23.282;2022-12-29T03:12:31;5.50;99.90
2889;DHT22;1453;42.708;23.282;2022-12-29T03:15:36;5.50;99.90
2889;DHT22;1453;42.708;23.282;2022-12-29T03:21:39;5.80;99.90
2889;DHT22;1453;42.708;23.282;2022-12-29T03:24:31;5.80;99.90
2889;DHT22;1453;42.708;23.282;2022-12-29T03:27:01;5.70;99.90
2889;DHT22;1453;42.708;23.282;2022-12-29T03:29:33;5.70;99.90
2889;DHT22;1453;42.708;23.282;2022-12-29T03:32:03;5.70;99.90
2889;DHT22;1453;42.708;23.282;2022-12-29T03:34:30;5.70;99.90
2889;DHT22;1453;42.708;23.282;2022-12-29T03:37:09;5.60;99.90
2889;DHT22;1453;42.708;23.282;2022-12-29T03:39:37;5.70;99.90
2889;DHT22;1453;42.708;23.282;2022-12-29T03:42:06;5.60;99.90
2889;DHT22;1453;42.708;23.282;2022-12-29T03:44:39;5.60;99.90
2889;DHT22;1453;42.708;23.282;2022-12-29T03:47:07;5.50;99.90
2889;DHT22;1453;42.708;23.282;2022-12-29T03:49:34;5.40;99.90
2889;DHT22;1453;42.708;23.282;2022-12-29T03:52:00;5.30;99.90
2889;DHT22;1453;42.708;23.282;2022-12-29T03:54:26;5.20;99.90
2889;DHT22;1453;42.708;23.282;2022-12-29T03:56:52;5.20;99.90
2889;DHT22;1453;42.708;23.282;2022-12-29T03:59:18;5.10;99.90
2889;DHT22;1453;42.708;23.282;2022-12-29T04:01:43;5.00;99.90
2889;DHT22;1453;42.708;23.282;2022-12-29T04:04:09;4.90;99.90
2889;DHT22;1453;42.708;23.282;2022-12-29T04:06:35;4.90;99.90
2889;DHT22;1453;42.708;23.282;2022-12-29T04:09:01;4.90;99.90
2889;DHT22;1453;42.708;23.282;2022-12-29T04:11:26;4.80;99.90
2889;DHT22;1453;42.708;23.282;2022-12-29T04:13:52;4.80;99.90
2889;DHT22;1453;42.708;23.282;2022-12-29T04:16:18;4.80;99.90
2889;DHT22;1453;42.708;23.282;2022-12-29T04:18:44;4.60;99.90
2889;DHT22;1453;42.708;23.282;2022-12-29T04:21:10;4.60;99.90
2889;DHT22;1453;42.708;23.282;2022-12-29T04:23:37;4.70;99.90
2889;DHT22;1453;42.708;23.282;2022-12-29T04:26:05;4.70;99.90
2889;DHT22;1453;42.708;23.282;2022-12-29T04:28:33;4.50;99.90
2889;DHT22;1453;42.708;23.282;2022-12-29T04:30:59;4.50;99.90
2889;DHT22;1453;42.708;23.282;2022-12-29T04:33:25;4.50;99.90
2889;DHT22;1453;42.708;23.282;2022-12-29T04:35:51;4.60;99.90
2889;DHT22;1453;42.708;23.282;2022-12-29T04:38:19;4.60;99.90
2889;DHT22;1453;42.708;23.282;2022-12-29T04:40:45;4.50;99.90
2889;DHT22;1453;42.708;23.282;2022-12-29T04:43:12;4.60;99.90
2889;DHT22;1453;42.708;23.282;2022-12-29T04:45:48;4.60;99.90
2889;DHT22;1453;42.708;23.282;2022-12-29T04:48:14;4.70;99.90
2889;DHT22;1453;42.708;23.282;2022-12-29T04:50:40;4.90;99.90
2889;DHT22;1453;42.708;23.282;2022-12-29T04:53:06;4.80;99.90
2889;DHT22;1453;42.708;23.282;2022-12-29T04:55:32;4.80;99.90
2889;DHT22;1453;42.708;23.282;2022-12-29T04:57:58;4.80;99.90
2889;DHT22;1453;42.708;23.282;2022-12-29T05:00:24;4.90;99.90
2889;DHT22;1453;42.708;23.282;2022-12-29T05:02:51;4.80;99.90
2889;DHT22;1453;42.708;23.282;2022-12-29T05:05:17;4.70;99.90
2889;DHT22;1453;42.708;23.282;2022-12-29T05:07:43;4.70;99.90
2889;DHT22;1453;42.708;23.282;2022-12-29T05:10:10;4.40;99.90
2889;DHT22;1453;42.708;23.282;2022-12-29T05:12:37;4.50;99.90
2889;DHT22;1453;42.708;23.282;2022-12-29T05:15:04;4.80;99.90
2889;DHT22;1453;42.708;23.282;2022-12-29T05:20:40;5.10;99.90
2889;DHT22;1453;42.708;23.282;2022-12-29T05:23:06;5.20;99.90
2889;DHT22;1453;42.708;23.282;2022-12-29T05:25:32;5.20;99.90
2889;DHT22;1453;42.708;23.282;2022-12-29T05:27:57;5.00;99.90
2889;DHT22;1453;42.708;23.282;2022-12-29T05:30:23;4.80;99.90
2889;DHT22;1453;42.708;23.282;2022-12-29T05:32:49;4.90;99.90
2889;DHT22;1453;42.708;23.282;2022-12-29T05:35:15;4.80;99.90
2889;DHT22;1453;42.708;23.282;2022-12-29T05:37:41;4.90;99.90
2889;DHT22;1453;42.708;23.282;2022-12-29T05:40:07;4.60;99.90
2889;DHT22;1453;42.708;23.282;2022-12-29T05:42:33;4.80;99.90
2889;DHT22;1453;42.708;23.282;2022-12-29T05:44:59;5.00;99.90
2889;DHT22;1453;42.708;23.282;2022-12-29T05:47:25;5.20;99.90
2889;DHT22;1453;42.708;23.282;2022-12-29T05:49:50;5.30;99.90
2889;DHT22;1453;42.708;23.282;2022-12-29T05:52:44;5.40;99.90
2889;DHT22;1453;42.708;23.282;2022-12-29T05:55:11;5.10;99.90
2889;DHT22;1453;42.708;23.282;2022-12-29T05:57:37;5.10;99.90
2889;DHT22;1453;42.708;23.282;2022-12-29T06:00:04;5.00;99.90
2889;DHT22;1453;42.708;23.282;2022-12-29T06:02:31;5.10;99.90
2889;DHT22;1453;42.708;23.282;2022-12-29T06:04:57;5.10;99.90
2889;DHT22;1453;42.708;23.282;2022-12-29T06:07:22;5.10;99.90
2889;DHT22;1453;42.708;23.282;2022-12-29T06:09:48;5.10;99.90
2889;DHT22;1453;42.708;23.282;2022-12-29T06:12:14;5.20;99.90
2889;DHT22;1453;42.708;23.282;2022-12-29T06:14:40;5.20;99.90
2889;DHT22;1453;42.708;23.282;2022-12-29T06:17:06;5.30;99.90
2889;DHT22;1453;42.708;23.282;2022-12-29T06:19:32;5.30;99.90
2889;DHT22;1453;42.708;23.282;2022-12-29T06:21:58;5.20;99.90
2889;DHT22;1453;42.708;23.282;2022-12-29T06:24:23;5.40;99.90
2889;DHT22;1453;42.708;23.282;2022-12-29T06:26:49;5.60;99.90
2889;DHT22;1453;42.708;23.282;2022-12-29T06:29:15;5.70;99.90
2889;DHT22;1453;42.708;23.282;2022-12-29T06:31:44;5.70;99.90
2889;DHT22;1453;42.708;23.282;2022-12-29T06:34:14;5.60;99.90
2889;DHT22;1453;42.708;23.282;2022-12-29T06:36:40;5.40;99.90
2889;DHT22;1453;42.708;23.282;2022-12-29T06:39:06;5.30;99.90
2889;DHT22;1453;42.708;23.282;2022-12-29T06:41:32;5.40;99.90
2889;DHT22;1453;42.708;23.282;2022-12-29T06:43:58;5.70;99.90
2889;DHT22;1453;42.708;23.282;2022-12-29T06:46:24;5.90;99.90
2889;DHT22;1453;42.708;23.282;2022-12-29T06:48:49;6.10;99.90
2889;DHT22;1453;42.708;23.282;2022-12-29T06:51:15;5.80;99.90
2889;DHT22;1453;42.708;23.282;2022-12-29T06:53:41;6.10;99.90
2889;DHT22;1453;42.708;23.282;2022-12-29T06:56:07;6.10;99.90
2889;DHT22;1453;42.708;23.282;2022-12-29T06:58:33;6.30;99.90
2889;DHT22;1453;42.708;23.282;2022-12-29T07:00:59;6.30;99.90
2889;DHT22;1453;42.708;23.282;2022-12-29T07:03:24;6.30;99.90
2889;DHT22;1453;42.708;23.282;2022-12-29T07:05:50;6.20;99.90
2889;DHT22;1453;42.708;23.282;2022-12-29T07:08:16;6.30;99.90
2889;DHT22;1453;42.708;23.282;2022-12-29T07:10:42;6.50;99.90
2889;DHT22;1453;42.708;23.282;2022-12-29T07:13:08;7.00;99.90
2889;DHT22;1453;42.708;23.282;2022-12-29T07:15:35;7.40;99.90
2889;DHT22;1453;42.708;23.282;2022-12-29T07:18:02;7.50;99.90
2889;DHT22;1453;42.708;23.282;2022-12-29T07:20:29;8.00;99.90
2889;DHT22;1453;42.708;23.282;2022-12-29T07:22:55;8.10;99.90
2889;DHT22;1453;42.708;23.282;2022-12-29T07:25:21;8.00;99.90
2889;DHT22;1453;42.708;23.282;2022-12-29T07:27:47;7.80;99.90
2889;DHT22;1453;42.708;23.282;2022-12-29T07:30:14;7.70;99.90
2889;DHT22;1453;42.708;23.282;2022-12-29T07:32:40;7.80;99.90
2889;DHT22;1453;42.708;23.282;2022-12-29T07:35:06;7.60;99.90
2889;DHT22;1453;42.708;23.282;2022-12-29T07:37:33;7.60;99.90
2889;DHT22;1453;42.708;23.282;2022-12-29T07:40:01;7.60;99.90
2889;DHT22;1453;42.708;23.282;2022-12-29T07:42:28;7.70;99.90
2889;DHT22;1453;42.708;23.282;2022-12-29T07:44:54;7.30;99.90
2889;DHT22;1453;42.708;23.282;2022-12-29T07:47:20;7.10;99.90
2889;DHT22;1453;42.708;23.282;2022-12-29T07:49:46;7.20;99.90
2889;DHT22;1453;42.708;23.282;2022-12-29T07:52:12;7.20;99.90
2889;DHT22;1453;42.708;23.282;2022-12-29T07:54:38;7.20;99.90
2889;DHT22;1453;42.708;23.282;2022-12-29T07:57:04;7.30;99.90
2889;DHT22;1453;42.708;23.282;2022-12-29T07:59:31;7.50;99.90
2889;DHT22;1453;42.708;23.282;2022-12-29T08:01:57;7.70;99.90
2889;DHT22;1453;42.708;23.282;2022-12-29T08:04:23;7.60;99.90
2889;DHT22;1453;42.708;23.282;2022-12-29T08:06:49;7.20;99.90
2889;DHT22;1453;42.708;23.282;2022-12-29T08:09:15;7.30;99.90
2889;DHT22;1453;42.708;23.282;2022-12-29T08:11:41;7.50;99.90
2889;DHT22;1453;42.708;23.282;2022-12-29T08:14:08;7.80;99.90
2889;DHT22;1453;42.708;23.282;2022-12-29T08:16:34;7.50;99.90
2889;DHT22;1453;42.708;23.282;2022-12-29T08:19:00;7.50;99.90
2889;DHT22;1453;42.708;23.282;2022-12-29T08:21:29;7.90;99.90
2889;DHT22;1453;42.708;23.282;2022-12-29T08:23:55;8.20;99.90
2889;DHT22;1453;42.708;23.282;2022-12-29T08:26:21;8.70;99.90
2889;DHT22;1453;42.708;23.282;2022-12-29T08:28:47;8.70;99.90
2889;DHT22;1453;42.708;23.282;2022-12-29T08:31:13;8.80;99.90
2889;DHT22;1453;42.708;23.282;2022-12-29T08:33:39;9.00;99.90
2889;DHT22;1453;42.708;23.282;2022-12-29T08:36:06;9.40;99.90
2889;DHT22;1453;42.708;23.282;2022-12-29T08:38:33;9.50;99.90
2889;DHT22;1453;42.708;23.282;2022-12-29T08:40:59;9.80;99.90
2889;DHT22;1453;42.708;23.282;2022-12-29T08:43:27;10.10;99.90
2889;DHT22;1453;42.708;23.282;2022-12-29T08:45:53;10.20;99.90
2889;DHT22;1453;42.708;23.282;2022-12-29T08:48:19;10.00;99.90
2889;DHT22;1453;42.708;23.282;2022-12-29T08:50:47;10.40;99.90
2889;DHT22;1453;42.708;23.282;2022-12-29T08:53:13;10.70;99.90
2889;DHT22;1453;42.708;23.282;2022-12-29T08:55:39;10.20;99.90
2889;DHT22;1453;42.708;23.282;2022-12-29T08:58:05;10.40;99.90
2889;DHT22;1453;42.708;23.282;2022-12-29T09:00:31;10.30;99.90
2889;DHT22;1453;42.708;23.282;2022-12-29T09:02:57;10.00;99.90
2889;DHT22;1453;42.708;23.282;2022-12-29T09:05:22;10.20;99.90
2889;DHT22;1453;42.708;23.282;2022-12-29T09:07:48;11.00;99.90
2889;DHT22;1453;42.708;23.282;2022-12-29T09:10:14;11.50;99.90
2889;DHT22;1453;42.708;23.282;2022-12-29T09:12:40;12.30;99.90
2889;DHT22;1453;42.708;23.282;2022-12-29T09:15:06;11.40;99.90
2889;DHT22;1453;42.708;23.282;2022-12-29T09:17:33;11.70;99.90
2889;DHT22;1453;42.708;23.282;2022-12-29T09:20:13;12.60;99.90
2889;DHT22;1453;42.708;23.282;2022-12-29T09:22:41;12.40;95.10
2889;DHT22;1453;42.708;23.282;2022-12-29T09:25:08;11.60;99.90
2889;DHT22;1453;42.708;23.282;2022-12-29T09:27:35;11.80;99.90
2889;DHT22;1453;42.708;23.282;2022-12-29T09:30:06;11.80;99.90
2889;DHT22;1453;42.708;23.282;2022-12-29T09:32:34;12.40;99.90
2889;DHT22;1453;42.708;23.282;2022-12-29T09:35:00;13.20;96.90
2889;DHT22;1453;42.708;23.282;2022-12-29T09:37:26;13.00;94.40
2889;DHT22;1453;42.708;23.282;2022-12-29T09:39:52;13.30;94.80
2889;DHT22;1453;42.708;23.282;2022-12-29T09:42:41;13.50;92.40
2889;DHT22;1453;42.708;23.282;2022-12-29T09:45:15;13.40;91.60
2889;DHT22;1453;42.708;23.282;2022-12-29T09:47:44;13.70;92.40
2889;DHT22;1453;42.708;23.282;2022-12-29T09:53:49;13.60;90.80
2889;DHT22;1453;42.708;23.282;2022-12-29T09:55:59;13.10;91.50
2889;DHT22;1453;42.708;23.282;2022-12-29T09:58:41;13.20;92.10
2889;DHT22;1453;42.708;23.282;2022-12-29T10:01:44;14.00;91.50
2889;DHT22;1453;42.708;23.282;2022-12-29T10:04:14;13.40;90.30
2889;DHT22;1453;42.708;23.282;2022-12-29T10:10:01;13.80;91.70
2889;DHT22;1453;42.708;23.282;2022-12-29T10:12:52;14.50;88.70
2889;DHT22;1453;42.708;23.282;2022-12-29T10:20:53;13.80;87.10
2889;DHT22;1453;42.708;23.282;2022-12-29T10:25:55;12.80;91.50
2889;DHT22;1453;42.708;23.282;2022-12-29T10:28:23;12.50;93.20
2889;DHT22;1453;42.708;23.282;2022-12-29T10:31:05;12.70;93.10
2889;DHT22;1453;42.708;23.282;2022-12-29T10:33:37;12.50;92.70
2889;DHT22;1453;42.708;23.282;2022-12-29T10:36:16;12.40;94.30
2889;DHT22;1453;42.708;23.282;2022-12-29T10:39:03;12.80;93.90
2889;DHT22;1453;42.708;23.282;2022-12-29T10:41:53;12.70;93.80
2889;DHT22;1453;42.708;23.282;2022-12-29T10:44:22;13.30;92.60
2889;DHT22;1453;42.708;23.282;2022-12-29T10:46:57;13.20;91.70
2889;DHT22;1453;42.708;23.282;2022-12-29T10:49:27;13.80;92.00
2889;DHT22;1453;42.708;23.282;2022-12-29T10:51:58;14.50;90.10
2889;DHT22;1453;42.708;23.282;2022-12-29T10:57:28;13.50;91.60
2889;DHT22;1453;42.708;23.282;2022-12-29T10:59:58;14.40;90.90
2889;DHT22;1453;42.708;23.282;2022-12-29T11:06:15;16.60;81.60
2889;DHT22;1453;42.708;23.282;2022-12-29T11:08:53;17.90;75.70
2889;DHT22;1453;42.708;23.282;2022-12-29T11:11:27;17.10;74.20
2889;DHT22;1453;42.708;23.282;2022-12-29T11:14:16;15.80;75.70
2889;DHT22;1453;42.708;23.282;2022-12-29T11:16:44;15.00;81.50
2889;DHT22;1453;42.708;23.282;2022-12-29T11:19:25;16.60;77.50
2889;DHT22;1453;42.708;23.282;2022-12-29T11:21:53;17.60;75.30
2889;DHT22;1453;42.708;23.282;2022-12-29T11:26:50;18.20;71.50
2889;DHT22;1453;42.708;23.282;2022-12-29T11:29:27;17.50;70.90
2889;DHT22;1453;42.708;23.282;2022-12-29T11:31:56;17.20;71.80
2889;DHT22;1453;42.708;23.282;2022-12-29T11:34:33;17.00;71.00
2889;DHT22;1453;42.708;23.282;2022-12-29T11:39:38;15.60;75.50
2889;DHT22;1453;42.708;23.282;2022-12-29T11:42:47;16.30;75.20
2889;DHT22;1453;42.708;23.282;2022-12-29T11:45:18;16.50;72.60
2889;DHT22;1453;42.708;23.282;2022-12-29T11:47:48;16.40;72.90
2889;DHT22;1453;42.708;23.282;2022-12-29T11:50:25;15.10;74.70
2889;DHT22;1453;42.708;23.282;2022-12-29T11:53:00;14.40;78.00
2889;DHT22;1453;42.708;23.282;2022-12-29T11:55:29;13.50;82.90
2889;DHT22;1453;42.708;23.282;2022-12-29T11:57:57;13.60;85.40
2889;DHT22;1453;42.708;23.282;2022-12-29T12:00:25;14.30;84.50
2889;DHT22;1453;42.708;23.282;2022-12-29T12:06:01;14.00;83.30
2889;DHT22;1453;42.708;23.282;2022-12-29T12:11:39;13.40;86.00
2889;DHT22;1453;42.708;23.282;2022-12-29T12:14:21;13.30;87.70
2889;DHT22;1453;42.708;23.282;2022-12-29T12:16:54;12.80;90.10
2889;DHT22;1453;42.708;23.282;2022-12-29T12:19:36;12.70;91.70
2889;DHT22;1453;42.708;23.282;2022-12-29T12:25:19;12.50;93.80
2889;DHT22;1453;42.708;23.282;2022-12-29T12:28:00;12.70;94.10
2889;DHT22;1453;42.708;23.282;2022-12-29T12:30:40;12.80;93.50
2889;DHT22;1453;42.708;23.282;2022-12-29T12:33:37;12.70;94.00
2889;DHT22;1453;42.708;23.282;2022-12-29T12:36:31;12.80;94.50
2889;DHT22;1453;42.708;23.282;2022-12-29T12:39:11;13.10;93.40
2889;DHT22;1453;42.708;23.282;2022-12-29T12:47:18;12.90;94.30
2889;DHT22;1453;42.708;23.282;2022-12-29T13:22:34;15.70;88.90
2889;DHT22;1453;42.708;23.282;2022-12-29T13:36:35;16.20;75.80
2889;DHT22;1453;42.708;23.282;2022-12-29T13:39:30;15.30;78.60
2889;DHT22;1453;42.708;23.282;2022-12-29T13:41:59;14.60;81.00
2889;DHT22;1453;42.708;23.282;2022-12-29T13:47:00;13.40;88.30
2889;DHT22;1453;42.708;23.282;2022-12-29T13:49:28;13.20;90.90
2889;DHT22;1453;42.708;23.282;2022-12-29T13:51:57;12.90;92.20
2889;DHT22;1453;42.708;23.282;2022-12-29T13:54:43;12.70;93.90
2889;DHT22;1453;42.708;23.282;2022-12-29T13:57:58;12.50;96.90
2889;DHT22;1453;42.708;23.282;2022-12-29T14:00:19;12.20;98.60
2889;DHT22;1453;42.708;23.282;2022-12-29T14:07:44;11.80;99.90
2889;DHT22;1453;42.708;23.282;2022-12-29T14:13:22;11.80;99.90
2889;DHT22;1453;42.708;23.282;2022-12-29T14:15:54;11.80;99.90
2889;DHT22;1453;42.708;23.282;2022-12-29T14:18:33;11.60;99.90
2889;DHT22;1453;42.708;23.282;2022-12-29T14:21:20;11.40;99.90
2889;DHT22;1453;42.708;23.282;2022-12-29T14:23:53;11.20;99.90
2889;DHT22;1453;42.708;23.282;2022-12-29T14:31:51;10.60;99.90
2889;DHT22;1453;42.708;23.282;2022-12-29T14:36:59;10.30;99.90
2889;DHT22;1453;42.708;23.282;2022-12-29T14:39:44;10.60;99.90
2889;DHT22;1453;42.708;23.282;2022-12-29T14:47:33;10.60;99.90
2889;DHT22;1453;42.708;23.282;2022-12-29T15:00:52;8.90;99.90
2889;DHT22;1453;42.708;23.282;2022-12-29T15:03:43;8.80;99.90
2889;DHT22;1453;42.708;23.282;2022-12-29T15:06:12;8.90;99.90
2889;DHT22;1453;42.708;23.282;2022-12-29T15:09:04;8.80;99.90
2889;DHT22;1453;42.708;23.282;2022-12-29T15:14:35;8.90;99.90
2889;DHT22;1453;42.708;23.282;2022-12-29T15:17:10;8.70;99.90
2889;DHT22;1453;42.708;23.282;2022-12-29T15:19:47;8.80;99.90
2889;DHT22;1453;42.708;23.282;2022-12-29T15:22:14;8.70;99.90
2889;DHT22;1453;42.708;23.282;2022-12-29T15:24:43;8.90;99.90
2889;DHT22;1453;42.708;23.282;2022-12-29T15:27:20;8.90;99.90
2889;DHT22;1453;42.708;23.282;2022-12-29T15:29:48;8.70;99.90
2889;DHT22;1453;42.708;23.282;2022-12-29T15:32:24;8.90;99.90
2889;DHT22;1453;42.708;23.282;2022-12-29T15:34:57;9.00;99.90
2889;DHT22;1453;42.708;23.282;2022-12-29T15:37:33;8.90;99.90
2889;DHT22;1453;42.708;23.282;2022-12-29T15:40:01;9.20;99.90
2889;DHT22;1453;42.708;23.282;2022-12-29T15:45:30;8.90;99.90
2889;DHT22;1453;42.708;23.282;2022-12-29T15:47:59;9.00;99.90
2889;DHT22;1453;42.708;23.282;2022-12-29T15:50:31;8.70;99.90
2889;DHT22;1453;42.708;23.282;2022-12-29T15:52:58;8.50;99.90
2889;DHT22;1453;42.708;23.282;2022-12-29T15:55:27;8.60;99.90
2889;DHT22;1453;42.708;23.282;2022-12-29T15:57:58;8.60;99.90
2889;DHT22;1453;42.708;23.282;2022-12-29T16:00:26;8.50;99.90
2889;DHT22;1453;42.708;23.282;2022-12-29T16:02:55;8.50;99.90
2889;DHT22;1453;42.708;23.282;2022-12-29T16:05:23;8.70;99.90
2889;DHT22;1453;42.708;23.282;2022-12-29T16:07:58;8.60;99.90
2889;DHT22;1453;42.708;23.282;2022-12-29T16:10:39;8.70;99.90
2889;DHT22;1453;42.708;23.282;2022-12-29T16:16:13;9.10;99.90
2889;DHT22;1453;42.708;23.282;2022-12-29T16:18:43;9.10;99.90
2889;DHT22;1453;42.708;23.282;2022-12-29T16:21:26;9.20;99.90
2889;DHT22;1453;42.708;23.282;2022-12-29T16:23:57;9.10;99.90
2889;DHT22;1453;42.708;23.282;2022-12-29T16:26:26;9.00;99.90
2889;DHT22;1453;42.708;23.282;2022-12-29T16:29:00;9.20;99.90
2889;DHT22;1453;42.708;23.282;2022-12-29T16:31:35;9.00;99.90
2889;DHT22;1453;42.708;23.282;2022-12-29T16:34:28;9.20;99.90
2889;DHT22;1453;42.708;23.282;2022-12-29T16:37:32;9.50;99.90
2889;DHT22;1453;42.708;23.282;2022-12-29T16:50:29;9.20;99.90
2889;DHT22;1453;42.708;23.282;2022-12-29T16:52:55;8.90;99.90
2889;DHT22;1453;42.708;23.282;2022-12-29T16:55:21;8.80;99.90
2889;DHT22;1453;42.708;23.282;2022-12-29T16:57:49;8.60;99.90
2889;DHT22;1453;42.708;23.282;2022-12-29T17:00:20;8.50;99.90
2889;DHT22;1453;42.708;23.282;2022-12-29T17:02:49;8.50;99.90
2889;DHT22;1453;42.708;23.282;2022-12-29T17:05:18;8.50;99.90
2889;DHT22;1453;42.708;23.282;2022-12-29T17:07:44;8.50;99.90
2889;DHT22;1453;42.708;23.282;2022-12-29T17:10:11;8.60;99.90
2889;DHT22;1453;42.708;23.282;2022-12-29T17:12:39;8.70;99.90
2889;DHT22;1453;42.708;23.282;2022-12-29T17:15:07;8.60;99.90
2889;DHT22;1453;42.708;23.282;2022-12-29T17:17:43;8.60;99.90
2889;DHT22;1453;42.708;23.282;2022-12-29T17:20:22;8.70;99.90
2889;DHT22;1453;42.708;23.282;2022-12-29T17:22:52;8.60;99.90
2889;DHT22;1453;42.708;23.282;2022-12-29T17:25:21;8.50;99.90
2889;DHT22;1453;42.708;23.282;2022-12-29T17:27:53;8.40;99.90
2889;DHT22;1453;42.708;23.282;2022-12-29T17:30:23;8.50;99.90
2889;DHT22;1453;42.708;23.282;2022-12-29T17:32:52;8.40;99.90
2889;DHT22;1453;42.708;23.282;2022-12-29T17:35:21;8.40;99.90
2889;DHT22;1453;42.708;23.282;2022-12-29T17:37:48;8.40;99.90
2889;DHT22;1453;42.708;23.282;2022-12-29T17:40:19;8.20;99.90
2889;DHT22;1453;42.708;23.282;2022-12-29T17:42:48;7.40;99.90
2889;DHT22;1453;42.708;23.282;2022-12-29T17:45:20;7.30;99.90
2889;DHT22;1453;42.708;23.282;2022-12-29T17:47:56;7.60;99.90
2889;DHT22;1453;42.708;23.282;2022-12-29T17:50:27;7.70;99.90
2889;DHT22;1453;42.708;23.282;2022-12-29T17:53:02;7.90;99.90
2889;DHT22;1453;42.708;23.282;2022-12-29T17:55:29;8.10;99.90
2889;DHT22;1453;42.708;23.282;2022-12-29T17:57:56;8.20;99.90
2889;DHT22;1453;42.708;23.282;2022-12-29T18:00:27;8.30;99.90
2889;DHT22;1453;42.708;23.282;2022-12-29T18:02:56;8.20;99.90
2889;DHT22;1453;42.708;23.282;2022-12-29T18:05:26;8.10;99.90
2889;DHT22;1453;42.708;23.282;2022-12-29T18:07:54;8.20;99.90
2889;DHT22;1453;42.708;23.282;2022-12-29T18:10:23;8.10;99.90
2889;DHT22;1453;42.708;23.282;2022-12-29T18:12:51;8.10;99.90
2889;DHT22;1453;42.708;23.282;2022-12-29T18:15:24;8.00;99.90
2889;DHT22;1453;42.708;23.282;2022-12-29T18:18:13;8.10;99.90
2889;DHT22;1453;42.708;23.282;2022-12-29T18:20:41;8.20;99.90
2889;DHT22;1453;42.708;23.282;2022-12-29T18:23:33;8.20;99.90
2889;DHT22;1453;42.708;23.282;2022-12-29T18:28:29;7.90;99.90
2889;DHT22;1453;42.708;23.282;2022-12-29T18:30:57;7.80;99.90
2889;DHT22;1453;42.708;23.282;2022-12-29T18:33:24;7.80;99.90
2889;DHT22;1453;42.708;23.282;2022-12-29T18:35:58;7.80;99.90
2889;DHT22;1453;42.708;23.282;2022-12-29T18:38:25;7.80;99.90
2889;DHT22;1453;42.708;23.282;2022-12-29T18:40:51;7.70;99.90
2889;DHT22;1453;42.708;23.282;2022-12-29T18:43:18;7.70;99.90
2889;DHT22;1453;42.708;23.282;2022-12-29T18:45:45;7.60;99.90
2889;DHT22;1453;42.708;23.282;2022-12-29T18:48:12;7.30;99.90
2889;DHT22;1453;42.708;23.282;2022-12-29T18:50:38;7.30;99.90
2889;DHT22;1453;42.708;23.282;2022-12-29T18:53:04;7.20;99.90
2889;DHT22;1453;42.708;23.282;2022-12-29T18:55:30;7.30;99.90
2889;DHT22;1453;42.708;23.282;2022-12-29T18:57:56;7.30;99.90
2889;DHT22;1453;42.708;23.282;2022-12-29T19:00:22;7.20;99.90
2889;DHT22;1453;42.708;23.282;2022-12-29T19:02:50;7.00;99.90
2889;DHT22;1453;42.708;23.282;2022-12-29T19:08:05;7.00;99.90
2889;DHT22;1453;42.708;23.282;2022-12-29T19:10:32;7.10;99.90
2889;DHT22;1453;42.708;23.282;2022-12-29T19:12:59;7.30;99.90
2889;DHT22;1453;42.708;23.282;2022-12-29T19:15:26;7.40;99.90
2889;DHT22;1453;42.708;23.282;2022-12-29T19:17:55;7.60;99.90
2889;DHT22;1453;42.708;23.282;2022-12-29T19:22:57;7.30;99.90
2889;DHT22;1453;42.708;23.282;2022-12-29T19:25:25;7.40;99.90
2889;DHT22;1453;42.708;23.282;2022-12-29T19:27:51;7.50;99.90
2889;DHT22;1453;42.708;23.282;2022-12-29T19:30:18;7.50;99.90
2889;DHT22;1453;42.708;23.282;2022-12-29T19:32:47;7.50;99.90
2889;DHT22;1453;42.708;23.282;2022-12-29T19:35:14;7.50;99.90
2889;DHT22;1453;42.708;23.282;2022-12-29T19:37:40;7.20;99.90
2889;DHT22;1453;42.708;23.282;2022-12-29T19:40:08;7.20;99.90